Estación Meteorológica Peña el Pijo (Robertgarden) [ 05/25/18 12:50:43 CEST ]

Fecha Hora Presion(HPa) Temp (°C) Humedad % Rocio (°C) Viento ( m/s) Direccion Lluvia 1Hora(mm) Lluvia 24H(mm) LLuvia Total(mm)
2018-Mar-05 01:01:50 989.100 7.9 67 2.1 1.2 NNW     104.63
2018-Mar-05 02:01:52 989.400 7.1 72 2.4 1.6 NNW     104.63
2018-Mar-05 03:10:06 989.300 5.4 77 1.7         104.63
2018-Mar-05 04:03:09 988.200 5.3 78 1.7     0.51 0.51 105.15
2018-Mar-05 05:01:40 988.400 4.4 80 1.3       0.51 105.15
2018-Mar-05 06:01:44 988.500 4.3 81 1.3     0.51 1.03 105.67
2018-Mar-05 07:01:34 989.100 4.2 81 1.2       1.03 105.67
2018-Mar-05 08:01:32 989.000 4.1 82 1.1       1.03 105.67
2018-Mar-05 09:01:48 988.800 4.1 82 1.3     0.51 1.55 106.19
2018-Mar-05 10:01:59 988.800 3.9 83 1.3     0.51 2.07 106.70
2018-Mar-05 11:01:48 988.100 3.8 84 1.3     1.55 3.62 108.26
2018-Mar-05 12:01:29 987.300 3.8 85 1.6     1.03 4.66 109.29
2018-Mar-05 13:01:26 986.100 5.9 85 3.5     0.51 5.18 109.81
2018-Mar-05 14:01:31 986.500 5.3 79 1.9       5.18 109.81
2018-Mar-05 15:01:34 984.900 3.4 83 0.8     1.03 6.21 110.85
2018-Mar-05 16:01:31 985.400 4.1 81 1.2     1.03 7.25 111.88
2018-Mar-05 17:01:55 985.100 5.9 84 3.4     1.55 8.80 113.44
2018-Mar-05 18:01:25 985.300 4.7 83 2.0 2.5 WNW 0.51 9.32 113.96
2018-Mar-05 19:01:57 986.100 4.8 84 2.3     1.03 10.36 114.99
2018-Mar-05 20:02:05 987.300 4.8 82 1.9       10.36 114.99
2018-Mar-05 21:01:46 988.600 4.4 83 1.8 2.3 NNW   10.36 114.99
2018-Mar-05 22:01:46 990.000 5.1 79 1.7       10.36 114.99
2018-Mar-05 23:02:04 990.700 4.2 80 1.1 0.6 NW   10.36 114.99

Temperatura Máxima:    Temperatura Mínima:
Presión Máxima:990.700 Hpa    Presión Mínima:984.900 Hpa


Volver